createdAt,value
2019-02-20T00:00:18.945Z,100297.92
2019-02-20T00:02:46.865Z,100304.80
2019-02-20T00:05:14.736Z,100305.05
2019-02-20T00:07:42.660Z,100309.03
2019-02-20T00:10:11.240Z,100315.16
2019-02-20T00:12:39.378Z,100331.80
2019-02-20T00:15:07.247Z,100325.33
2019-02-20T00:17:35.008Z,100334.68
2019-02-20T00:20:03.315Z,100333.36
2019-02-20T00:22:39.794Z,100330.59
2019-02-20T00:25:00.974Z,100334.79
2019-02-20T00:27:28.841Z,100326.75
2019-02-20T00:29:56.675Z,100338.03
2019-02-20T00:32:24.430Z,100339.34
2019-02-20T00:34:52.261Z,100347.46
2019-02-20T00:37:20.043Z,100343.16
2019-02-20T00:39:47.903Z,100338.25
2019-02-20T00:42:15.964Z,100338.25
2019-02-20T00:45:03.229Z,100341.23
2019-02-20T00:47:49.147Z,100346.83
2019-02-20T00:50:17.865Z,100342.63
2019-02-20T00:53:03.359Z,100329.81
2019-02-20T00:55:31.360Z,100335.66
2019-02-20T00:57:59.101Z,100335.80
2019-02-20T01:00:28.375Z,100339.50
2019-02-20T01:02:56.282Z,100336.83
2019-02-20T01:05:24.214Z,100344.12
2019-02-20T01:07:51.952Z,100334.69
2019-02-20T01:10:19.776Z,100333.62
2019-02-20T01:12:47.553Z,100345.48
2019-02-20T01:15:15.591Z,100343.81
2019-02-20T01:17:43.441Z,100342.48
2019-02-20T01:20:11.433Z,100335.44
2019-02-20T01:22:39.805Z,100329.78
2019-02-20T01:25:07.822Z,100333.48
2019-02-20T01:27:35.670Z,100333.73
2019-02-20T01:30:03.940Z,100330.89
2019-02-20T01:32:31.704Z,100339.61
2019-02-20T01:34:59.690Z,100349.43
2019-02-20T01:37:27.551Z,100341.77
2019-02-20T01:39:55.496Z,100343.34
2019-02-20T01:42:23.247Z,100345.34
2019-02-20T01:44:51.910Z,100336.47
2019-02-20T01:47:19.761Z,100347.40
2019-02-20T01:49:47.584Z,100345.84
2019-02-20T01:52:15.382Z,100352.67
2019-02-20T01:54:43.364Z,100347.40
2019-02-20T01:57:11.344Z,100361.64
2019-02-20T01:59:39.115Z,100363.06
2019-02-20T02:02:07.023Z,100346.69
2019-02-20T02:04:34.783Z,100346.05
2019-02-20T02:07:02.816Z,100353.63
2019-02-20T02:09:30.669Z,100353.16
2019-02-20T02:11:58.470Z,100351.95
2019-02-20T02:14:26.212Z,100357.97
2019-02-20T02:16:54.198Z,100347.79
2019-02-20T02:19:22.056Z,100361.06
2019-02-20T02:21:49.855Z,100351.49
2019-02-20T02:24:17.796Z,100356.73
2019-02-20T02:26:45.743Z,100364.77
2019-02-20T02:29:13.560Z,100366.69
2019-02-20T02:31:41.794Z,100367.76
2019-02-20T02:34:19.303Z,100376.27
2019-02-20T02:36:48.002Z,100377.94
2019-02-20T02:39:15.748Z,100371.22
2019-02-20T02:41:44.828Z,100380.08
2019-02-20T02:44:12.824Z,100370.25
2019-02-20T02:46:40.725Z,100375.66
2019-02-20T02:49:08.533Z,100383.42
2019-02-20T02:51:36.417Z,100395.88
2019-02-20T02:54:04.305Z,100379.25
2019-02-20T02:56:32.201Z,100384.28
2019-02-20T02:59:00.721Z,100386.55
2019-02-20T03:01:29.284Z,100393.95
2019-02-20T03:03:57.111Z,100393.85
2019-02-20T03:06:24.959Z,100397.31
2019-02-20T03:08:52.696Z,100385.48
2019-02-20T03:11:20.443Z,100385.95
2019-02-20T03:13:48.237Z,100395.88
2019-02-20T03:16:16.080Z,100392.53
2019-02-20T03:18:43.992Z,100399.23
2019-02-20T03:21:11.758Z,100387.48
2019-02-20T03:23:40.412Z,100384.63
2019-02-20T03:26:08.857Z,100390.62
2019-02-20T03:28:36.687Z,100395.64
2019-02-20T03:31:04.460Z,100386.77
2019-02-20T03:33:32.297Z,100395.91
2019-02-20T03:36:02.884Z,100396.63
2019-02-20T03:38:30.818Z,100397.23
2019-02-20T03:40:58.849Z,100393.52
2019-02-20T03:43:26.787Z,100395.64
2019-02-20T03:45:54.659Z,100394.95
2019-02-20T03:48:22.487Z,100391.00
2019-02-20T03:50:50.431Z,100404.98
2019-02-20T03:53:18.363Z,100408.94
2019-02-20T03:55:46.809Z,100401.53
2019-02-20T03:58:14.928Z,100407.02
2019-02-20T04:00:42.773Z,100406.80
2019-02-20T04:03:10.705Z,100407.51
2019-02-20T04:05:38.672Z,100403.67
2019-02-20T04:08:06.697Z,100410.27
2019-02-20T04:10:34.465Z,100409.79
2019-02-20T04:13:02.296Z,100406.20
2019-02-20T04:15:30.232Z,100405.12
2019-02-20T04:17:58.346Z,100409.19
2019-02-20T04:20:26.158Z,100413.49
2019-02-20T04:22:54.158Z,100408.25
2019-02-20T04:25:21.932Z,100413.77
2019-02-20T04:27:49.700Z,100408.72
2019-02-20T04:30:18.213Z,100402.98
2019-02-20T04:32:46.032Z,100408.72
2019-02-20T04:35:13.825Z,100407.78
2019-02-20T04:37:41.746Z,100420.68
2019-02-20T04:40:09.844Z,100415.05
2019-02-20T04:42:37.612Z,100409.92
2019-02-20T04:45:06.115Z,100402.98
2019-02-20T04:47:33.857Z,100410.88
2019-02-20T04:50:01.852Z,100410.27
2019-02-20T04:52:29.723Z,100411.59
2019-02-20T04:54:58.129Z,100411.24
2019-02-20T04:57:25.886Z,100417.08
2019-02-20T04:59:53.692Z,100415.42
2019-02-20T05:02:21.542Z,100413.74
2019-02-20T05:04:49.572Z,100410.02
2019-02-20T05:07:17.325Z,100409.77
2019-02-20T05:09:48.064Z,100409.44
2019-02-20T05:12:15.896Z,100409.42
2019-02-20T05:14:44.527Z,100423.06
2019-02-20T05:17:12.485Z,100419.96
2019-02-20T05:19:40.385Z,100421.29
2019-02-20T05:22:08.131Z,100422.60
2019-02-20T05:24:35.951Z,100427.40
2019-02-20T05:27:03.922Z,100430.38
2019-02-20T05:29:31.836Z,100430.14
2019-02-20T05:31:59.575Z,100439.37
2019-02-20T05:34:27.490Z,100436.14
2019-02-20T05:36:55.347Z,100440.31
2019-02-20T05:39:23.171Z,100435.05
2019-02-20T05:41:50.950Z,100439.49
2019-02-20T05:44:18.752Z,100446.08
2019-02-20T05:46:46.647Z,100455.04
2019-02-20T05:49:14.405Z,100452.42
2019-02-20T05:51:42.291Z,100465.95
2019-02-20T05:54:10.070Z,100461.02
2019-02-20T05:56:37.880Z,100471.45
2019-02-20T05:59:05.837Z,100475.62
2019-02-20T06:01:33.654Z,100475.28
2019-02-20T06:04:01.494Z,100486.30
2019-02-20T06:06:29.448Z,100484.02
2019-02-20T06:08:57.422Z,100486.41
2019-02-20T06:11:25.238Z,100492.75
2019-02-20T06:13:53.007Z,100497.66
2019-02-20T06:16:20.940Z,100495.75
2019-02-20T06:18:48.699Z,100509.64
2019-02-20T06:21:16.582Z,100503.66
2019-02-20T06:23:44.409Z,100498.03
2019-02-20T06:26:12.352Z,100511.19
2019-02-20T06:28:40.198Z,100511.53
2019-02-20T06:31:08.048Z,100509.14
2019-02-20T06:33:36.427Z,100505.43
2019-02-20T06:36:04.386Z,100511.30
2019-02-20T06:38:32.182Z,100501.60
2019-02-20T06:41:00.113Z,100516.34
2019-02-20T06:43:27.940Z,100510.36
2019-02-20T06:45:55.728Z,100509.86
2019-02-20T06:48:23.494Z,100519.22
2019-02-20T06:50:51.448Z,100517.41
2019-02-20T06:55:53.984Z,100523.88
2019-02-20T06:58:21.921Z,100529.03
2019-02-20T07:00:49.730Z,100527.59
2019-02-20T07:03:17.460Z,100529.27
2019-02-20T07:06:09.466Z,100532.75
2019-02-20T07:08:54.108Z,100529.86
2019-02-20T07:12:02.570Z,100539.45
2019-02-20T07:15:02.313Z,100550.34
2019-02-20T07:18:02.404Z,100552.98
2019-02-20T07:21:08.627Z,100553.09
2019-02-20T07:24:03.019Z,100546.16
2019-02-20T07:27:03.555Z,100541.96
2019-02-20T07:29:59.801Z,100545.78
2019-02-20T07:32:27.558Z,100560.52
2019-02-20T07:34:55.501Z,100557.77
2019-02-20T07:37:23.361Z,100560.30
2019-02-20T07:39:51.313Z,100561.02
2019-02-20T07:42:19.278Z,100563.52
2019-02-20T07:44:47.073Z,100568.07
2019-02-20T07:47:14.867Z,100570.70
2019-02-20T07:49:42.623Z,100577.54
2019-02-20T07:52:10.600Z,100577.05
2019-02-20T07:54:38.350Z,100575.61
2019-02-20T07:57:06.264Z,100585.69
2019-02-20T07:59:34.000Z,100587.34
2019-02-20T08:02:01.835Z,100584.47
2019-02-20T08:04:29.584Z,100596.69
2019-02-20T08:06:57.377Z,100591.89
2019-02-20T08:09:25.369Z,100586.86
2019-02-20T08:11:53.286Z,100591.05
2019-02-20T08:14:21.115Z,100598.97
2019-02-20T08:16:52.215Z,100594.76
2019-02-20T08:19:18.613Z,100607.94
2019-02-20T08:21:46.438Z,100608.30
2019-02-20T08:24:14.173Z,100602.55
2019-02-20T08:26:42.062Z,100604.45
2019-02-20T08:29:10.252Z,100606.36
2019-02-20T08:31:38.094Z,100622.31
2019-02-20T08:34:05.962Z,100616.58
2019-02-20T08:36:33.870Z,100615.50
2019-02-20T08:39:01.625Z,100612.48
2019-02-20T08:41:29.383Z,100608.17
2019-02-20T08:43:57.277Z,100612.84
2019-02-20T08:46:25.026Z,100616.34
2019-02-20T08:48:52.834Z,100619.81
2019-02-20T08:51:20.645Z,100625.44
2019-02-20T08:53:48.450Z,100620.77
2019-02-20T08:56:16.287Z,100626.05
2019-02-20T08:58:44.176Z,100627.48
2019-02-20T09:01:11.914Z,100636.59
2019-02-20T09:03:39.838Z,100641.27
2019-02-20T09:06:08.788Z,100633.83
2019-02-20T09:08:36.616Z,100650.84
2019-02-20T09:11:04.554Z,100638.50
2019-02-20T09:13:32.928Z,100647.58
2019-02-20T09:16:00.673Z,100643.47
2019-02-20T09:18:28.494Z,100639.69
2019-02-20T09:20:56.254Z,100647.30
2019-02-20T09:23:24.041Z,100651.64
2019-02-20T09:25:51.890Z,100656.98
2019-02-20T09:28:19.708Z,100649.69
2019-02-20T09:30:47.481Z,100649.55
2019-02-20T09:33:15.391Z,100656.38
2019-02-20T09:35:43.165Z,100658.34
2019-02-20T09:38:10.966Z,100667.44
2019-02-20T09:40:38.813Z,100664.34
2019-02-20T09:43:06.767Z,100670.63
2019-02-20T09:45:41.748Z,100665.85
2019-02-20T09:48:04.482Z,100677.63
2019-02-20T09:50:32.304Z,100674.02
2019-02-20T09:53:00.133Z,100678.34
2019-02-20T09:55:31.625Z,100678.23
2019-02-20T09:57:59.654Z,100682.90
2019-02-20T10:00:27.674Z,100687.96
2019-02-20T10:02:55.545Z,100689.78
2019-02-20T10:05:23.374Z,100693.23
2019-02-20T10:07:51.173Z,100680.76
2019-02-20T10:10:19.113Z,100678.83
2019-02-20T10:12:46.886Z,100687.25
2019-02-20T10:15:14.909Z,100690.35
2019-02-20T10:17:42.787Z,100687.57
2019-02-20T10:20:10.858Z,100682.30
2019-02-20T10:22:38.749Z,100690.82
2019-02-20T10:25:06.938Z,100686.83
2019-02-20T10:27:35.174Z,100684.30
2019-02-20T10:30:03.523Z,100689.25
2019-02-20T10:32:31.491Z,100700.52
2019-02-20T10:34:59.502Z,100692.96
2019-02-20T10:37:27.278Z,100693.21
2019-02-20T10:39:55.292Z,100692.00
2019-02-20T10:42:23.476Z,100697.74
2019-02-20T10:44:51.922Z,100696.92
2019-02-20T10:47:19.710Z,100689.57
2019-02-20T10:49:47.635Z,100691.10
2019-02-20T10:52:15.672Z,100697.09
2019-02-20T10:54:43.504Z,100697.95
2019-02-20T10:57:11.425Z,100696.88
2019-02-20T10:59:43.866Z,100700.80
2019-02-20T11:02:12.116Z,100692.53
2019-02-20T11:04:39.955Z,100698.66
2019-02-20T11:07:07.858Z,100704.66
2019-02-20T11:09:35.769Z,100709.44
2019-02-20T11:12:03.544Z,100703.80
2019-02-20T11:14:32.116Z,100712.44
2019-02-20T11:16:59.949Z,100717.58
2019-02-20T11:19:27.785Z,100707.16
2019-02-20T11:21:55.635Z,100708.08
2019-02-20T11:24:23.489Z,100717.93
2019-02-20T11:26:55.054Z,100711.69
2019-02-20T11:29:21.249Z,100703.87
2019-02-20T11:31:49.863Z,100701.84
2019-02-20T11:34:19.763Z,100699.80
2019-02-20T11:36:49.326Z,100705.79
2019-02-20T11:39:17.538Z,100705.79
2019-02-20T11:41:46.750Z,100709.50
2019-02-20T11:44:20.770Z,100703.76
2019-02-20T11:46:44.722Z,100704.22
2019-02-20T11:49:12.517Z,100712.29
2019-02-20T11:51:40.498Z,100699.04
2019-02-20T11:54:08.473Z,100711.39
2019-02-20T11:56:36.344Z,100710.20
2019-02-20T11:59:04.323Z,100709.71
2019-02-20T12:01:32.324Z,100713.22
2019-02-20T12:04:00.100Z,100717.78
2019-02-20T12:06:27.957Z,100714.28
2019-02-20T12:08:55.815Z,100717.78
2019-02-20T12:11:23.625Z,100710.46
2019-02-20T12:13:51.700Z,100709.39
2019-02-20T12:16:19.508Z,100710.58
2019-02-20T12:18:47.393Z,100708.69
2019-02-20T12:21:15.384Z,100713.46
2019-02-20T12:23:43.318Z,100714.88
2019-02-20T12:26:11.370Z,100717.88
2019-02-20T12:28:39.847Z,100720.62
2019-02-20T12:31:07.790Z,100719.30
2019-02-20T12:33:35.630Z,100725.64
2019-02-20T12:36:03.731Z,100714.48
2019-02-20T12:38:31.746Z,100724.33
2019-02-20T12:41:00.113Z,100707.36
2019-02-20T12:43:27.948Z,100707.27
2019-02-20T12:45:55.821Z,100720.92
2019-02-20T12:48:23.616Z,100725.33
2019-02-20T12:50:52.173Z,100717.00
2019-02-20T12:53:20.036Z,100717.36
2019-02-20T12:55:47.907Z,100716.48
2019-02-20T12:58:15.759Z,100730.11
2019-02-20T13:00:43.831Z,100721.06
2019-02-20T13:03:12.333Z,100713.33
2019-02-20T13:05:40.137Z,100713.58
2019-02-20T13:08:08.077Z,100716.48
2019-02-20T13:10:36.932Z,100722.31
2019-02-20T13:13:04.877Z,100710.87
2019-02-20T13:15:32.870Z,100716.66
2019-02-20T13:18:00.787Z,100714.58
2019-02-20T13:20:28.547Z,100715.89
2019-02-20T13:22:56.876Z,100714.14
2019-02-20T13:25:24.625Z,100717.45
2019-02-20T13:27:52.469Z,100717.09
2019-02-20T13:30:20.244Z,100721.21
2019-02-20T13:32:50.957Z,100730.38
2019-02-20T13:35:18.849Z,100732.25
2019-02-20T13:37:46.657Z,100721.74
2019-02-20T13:40:14.635Z,100733.20
2019-02-20T13:42:42.474Z,100728.97
2019-02-20T13:45:10.417Z,100728.12
2019-02-20T13:47:40.292Z,100726.31
2019-02-20T13:50:08.298Z,100737.20
2019-02-20T13:52:36.305Z,100724.58
2019-02-20T13:55:06.218Z,100742.39
2019-02-20T13:57:34.361Z,100730.84
2019-02-20T14:00:02.403Z,100735.20
2019-02-20T14:02:30.356Z,100740.01
2019-02-20T14:04:58.150Z,100741.61
2019-02-20T14:07:26.012Z,100744.26
2019-02-20T14:09:53.923Z,100738.47
2019-02-20T14:12:21.874Z,100748.58
2019-02-20T14:14:49.669Z,100748.39
2019-02-20T14:17:26.241Z,100758.61
2019-02-20T14:19:47.379Z,100755.35
2019-02-20T14:22:15.255Z,100761.63
2019-02-20T14:24:43.114Z,100755.02
2019-02-20T14:27:11.338Z,100749.20
2019-02-20T14:29:39.408Z,100746.30
2019-02-20T14:32:07.591Z,100754.85
2019-02-20T14:34:35.518Z,100763.75
2019-02-20T14:37:03.388Z,100760.50
2019-02-20T14:39:31.230Z,100748.78
2019-02-20T14:42:00.963Z,100753.01
2019-02-20T14:44:28.846Z,100755.14
2019-02-20T14:46:56.738Z,100748.89
2019-02-20T14:49:24.737Z,100750.59
2019-02-20T14:51:53.410Z,100750.59
2019-02-20T14:54:21.514Z,100754.65
2019-02-20T14:56:49.422Z,100756.77
2019-02-20T14:59:17.377Z,100755.62
2019-02-20T15:01:45.147Z,100752.09
2019-02-20T15:04:13.295Z,100751.74
2019-02-20T15:06:41.080Z,100751.22
2019-02-20T15:09:09.053Z,100747.42
2019-02-20T15:11:37.098Z,100754.91
2019-02-20T15:14:05.034Z,100756.94
2019-02-20T15:16:32.850Z,100761.44
2019-02-20T15:19:00.615Z,100765.16
2019-02-20T15:21:28.613Z,100766.59
2019-02-20T15:23:56.487Z,100775.75
2019-02-20T15:26:24.424Z,100774.94
2019-02-20T15:28:52.170Z,100769.04
2019-02-20T15:31:21.348Z,100767.45
2019-02-20T15:33:49.224Z,100766.44
2019-02-20T15:36:17.152Z,100764.11
2019-02-20T15:38:46.108Z,100770.72
2019-02-20T15:41:14.018Z,100762.33
2019-02-20T15:43:53.156Z,100771.23
2019-02-20T15:46:21.123Z,100767.68
2019-02-20T15:48:48.889Z,100762.89
2019-02-20T15:51:16.694Z,100771.44
2019-02-20T15:53:44.956Z,100774.69
2019-02-20T15:56:12.947Z,100766.15
2019-02-20T15:58:40.974Z,100773.48
2019-02-20T16:01:09.455Z,100767.11
2019-02-20T16:03:38.022Z,100770.73
2019-02-20T16:06:05.958Z,100770.02
2019-02-20T16:08:33.943Z,100775.81
2019-02-20T16:11:02.264Z,100779.63
2019-02-20T16:13:30.059Z,100781.10
2019-02-20T16:15:57.992Z,100780.84
2019-02-20T16:18:25.940Z,100784.70
2019-02-20T16:20:53.967Z,100780.39
2019-02-20T16:23:21.842Z,100785.57
2019-02-20T16:25:49.601Z,100789.32
2019-02-20T16:28:17.814Z,100798.57
2019-02-20T16:30:45.684Z,100802.17
2019-02-20T16:33:13.506Z,100798.42
2019-02-20T16:35:41.371Z,100810.60
2019-02-20T16:38:09.310Z,100806.28
2019-02-20T16:40:37.081Z,100814.42
2019-02-20T16:43:05.128Z,100815.03
2019-02-20T16:45:33.385Z,100815.39
2019-02-20T16:48:01.312Z,100815.99
2019-02-20T16:50:29.090Z,100818.42
2019-02-20T16:52:56.893Z,100820.34
2019-02-20T16:55:24.694Z,100823.09
2019-02-20T16:57:56.554Z,100815.06
2019-02-20T17:00:23.399Z,100825.88
2019-02-20T17:02:51.709Z,100828.16
2019-02-20T17:05:19.658Z,100830.55
2019-02-20T17:07:47.690Z,100833.80
2019-02-20T17:10:15.859Z,100831.41
2019-02-20T17:12:43.892Z,100826.84
2019-02-20T17:15:12.209Z,100827.55
2019-02-20T17:17:40.226Z,100828.77
2019-02-20T17:20:10.393Z,100832.97
2019-02-20T17:22:38.470Z,100835.61
2019-02-20T17:25:07.483Z,100833.69
2019-02-20T17:27:35.477Z,100836.58
2019-02-20T17:30:03.788Z,100842.82
2019-02-20T17:32:33.042Z,100844.86
2019-02-20T17:35:01.472Z,100836.80
2019-02-20T17:37:29.388Z,100840.89
2019-02-20T17:39:57.145Z,100843.06
2019-02-20T17:42:24.971Z,100839.35
2019-02-20T17:44:52.839Z,100843.31
2019-02-20T17:47:20.738Z,100848.95
2019-02-20T17:49:48.577Z,100843.87
2019-02-20T17:52:16.831Z,100850.23
2019-02-20T17:54:44.649Z,100846.61
2019-02-20T17:57:12.676Z,100854.11
2019-02-20T17:59:41.263Z,100854.56
2019-02-20T18:02:09.524Z,100858.06
2019-02-20T18:04:37.351Z,100851.77
2019-02-20T18:07:05.293Z,100855.13
2019-02-20T18:09:33.203Z,100856.95
2019-02-20T18:12:01.586Z,100850.95
2019-02-20T18:14:29.515Z,100855.04
2019-02-20T18:16:58.094Z,100859.88
2019-02-20T18:19:29.514Z,100861.91
2019-02-20T18:21:57.463Z,100862.98
2019-02-20T18:24:26.133Z,100865.04
2019-02-20T18:26:53.944Z,100866.47
2019-02-20T18:29:21.790Z,100866.00
2019-02-20T18:31:49.675Z,100873.81
2019-02-20T18:34:17.527Z,100874.16
2019-02-20T18:36:45.391Z,100876.85
2019-02-20T18:39:13.395Z,100878.63
2019-02-20T18:41:41.250Z,100877.56
2019-02-20T18:44:09.368Z,100879.67
2019-02-20T18:46:37.140Z,100884.39
2019-02-20T18:49:05.072Z,100881.45
2019-02-20T18:51:32.820Z,100884.75
2019-02-20T18:54:00.621Z,100878.59
2019-02-20T18:56:28.418Z,100885.27
2019-02-20T18:58:56.426Z,100889.59
2019-02-20T19:01:24.268Z,100892.67
2019-02-20T19:03:52.872Z,100896.72
2019-02-20T19:06:20.756Z,100900.86
2019-02-20T19:09:02.374Z,100899.92
2019-02-20T19:11:53.360Z,100902.92
2019-02-20T19:14:40.661Z,100899.34
2019-02-20T19:17:51.033Z,100908.00
2019-02-20T19:20:35.533Z,100908.48
2019-02-20T19:23:36.804Z,100910.05
2019-02-20T19:26:36.952Z,100917.38
2019-02-20T19:29:43.398Z,100916.90
2019-02-20T19:33:14.136Z,100917.97
2019-02-20T19:36:11.692Z,100924.56
2019-02-20T19:39:27.070Z,100925.41
2019-02-20T19:42:46.691Z,100929.40
2019-02-20T19:45:44.134Z,100934.09
2019-02-20T19:48:49.432Z,100929.48
2019-02-20T19:52:11.478Z,100932.80
2019-02-20T19:54:57.767Z,100929.59
2019-02-20T19:57:57.208Z,100937.89
2019-02-20T20:01:02.023Z,100932.48
2019-02-20T20:03:52.996Z,100936.81
2019-02-20T20:06:49.685Z,100943.79
2019-02-20T20:09:28.329Z,100945.59
2019-02-20T20:12:33.465Z,100946.55
2019-02-20T20:15:41.890Z,100946.43
2019-02-20T20:18:50.203Z,100942.09
2019-02-20T20:21:57.180Z,100946.65
2019-02-20T20:24:56.885Z,100945.70
2019-02-20T20:27:52.603Z,100947.36
2019-02-20T20:30:43.635Z,100946.17
2019-02-20T20:34:01.885Z,100954.81
2019-02-20T20:37:16.151Z,100952.05
2019-02-20T20:40:28.272Z,100951.92
2019-02-20T20:43:40.106Z,100942.92
2019-02-20T20:46:41.397Z,100944.11
2019-02-20T20:49:37.591Z,100946.13
2019-02-20T20:52:32.878Z,100947.58
2019-02-20T20:55:33.882Z,100942.43
2019-02-20T20:58:35.226Z,100944.11
2019-02-20T21:01:36.564Z,100942.06
2019-02-20T21:04:56.950Z,100947.94
2019-02-20T21:07:52.729Z,100946.49
2019-02-20T21:10:57.938Z,100940.72
2019-02-20T21:13:39.453Z,100941.45
2019-02-20T21:17:00.511Z,100938.55
2019-02-20T21:20:05.619Z,100941.32
2019-02-20T21:23:11.489Z,100941.55
2019-02-20T21:26:33.873Z,100941.78
2019-02-20T21:29:40.048Z,100940.80
2019-02-20T21:33:00.111Z,100940.23
2019-02-20T21:36:06.851Z,100942.28
2019-02-20T21:38:59.333Z,100945.97
2019-02-20T21:42:05.300Z,100950.79
2019-02-20T21:44:54.957Z,100953.16
2019-02-20T21:47:58.860Z,100953.06
2019-02-20T21:50:49.298Z,100948.61
2019-02-20T21:54:10.678Z,100948.16
2019-02-20T21:57:12.550Z,100951.35
2019-02-20T22:00:03.674Z,100946.67
2019-02-20T22:02:54.838Z,100951.95
2019-02-20T22:06:01.888Z,100958.91
2019-02-20T22:09:13.277Z,100951.95
2019-02-20T22:12:37.520Z,100961.31
2019-02-20T22:15:55.279Z,100966.23
2019-02-20T22:19:05.249Z,100965.37
2019-02-20T22:22:00.278Z,100956.50
2019-02-20T22:25:12.435Z,100966.23
2019-02-20T22:28:03.939Z,100962.86
2019-02-20T22:31:06.974Z,100960.81
2019-02-20T22:33:55.696Z,100961.64
2019-02-20T22:37:00.740Z,100962.96
2019-02-20T22:39:53.739Z,100965.96
2019-02-20T22:43:14.333Z,100969.56
2019-02-20T22:45:56.684Z,100965.14
2019-02-20T22:49:14.015Z,100964.77
2019-02-20T22:52:11.369Z,100962.14
2019-02-20T22:55:15.622Z,100965.27
2019-02-20T22:57:50.614Z,100960.69
2019-02-20T23:01:03.248Z,100957.95
2019-02-20T23:03:59.171Z,100966.69
2019-02-20T23:06:48.148Z,100967.64
2019-02-20T23:09:43.491Z,100961.05
2019-02-20T23:13:00.108Z,100966.92
2019-02-20T23:15:28.060Z,100965.63
2019-02-20T23:17:55.980Z,100971.73
2019-02-20T23:20:23.748Z,100972.09
2019-02-20T23:22:51.661Z,100974.38
2019-02-20T23:25:19.543Z,100976.78
2019-02-20T23:27:47.290Z,100976.65
2019-02-20T23:30:18.556Z,100980.02
2019-02-20T23:32:46.571Z,100977.73
2019-02-20T23:35:14.516Z,100974.73
2019-02-20T23:37:42.263Z,100975.86
2019-02-20T23:40:10.305Z,100975.86
2019-02-20T23:42:38.084Z,100977.17
2019-02-20T23:45:06.091Z,100986.88
2019-02-20T23:47:34.492Z,100982.45
2019-02-20T23:50:02.348Z,100978.95
2019-02-20T23:52:30.165Z,100981.23
2019-02-20T23:54:57.947Z,100993.37
2019-02-20T23:57:25.857Z,100993.57
2019-02-20T23:59:53.944Z,100992.64
